Time;durP1;ratioP1;P1;durP2;ratioP2;P2;SDS_P1;SDS_P2;PMS_P1;PMS_P2;Temp;Humidity;BMP_temperature;BMP_pressure;BME280_temperature;BME280_humidity;BME280_pressure;Samples;Min_cycle;Max_cycle;Signal;HPM_P1;HPM_P2
2021/04/14 00:01:06;;;;;;;5.15;2.30;;;0.00;99.90;;;;;;4892992;28;20103;-72
2021/04/14 00:03:32;;;;;;;4.75;1.77;;;0.00;99.90;;;;;;4892719;28;20491;-71
2021/04/14 00:05:58;;;;;;;8.27;1.77;;;-0.10;99.90;;;;;;4893032;29;20074;-72
2021/04/14 00:08:27;;;;;;;7.03;2.15;;;-0.10;99.90;;;;;;4892893;28;20423;-72
2021/04/14 00:10:53;;;;;;;4.25;1.92;;;0.00;99.90;;;;;;4957360;28;20435;-71
2021/04/14 00:13:24;;;;;;;6.40;2.45;;;-0.10;99.90;;;;;;4892718;29;20029;-71
2021/04/14 00:15:52;;;;;;;7.35;2.05;;;-0.10;99.90;;;;;;4957507;28;20079;-72
2021/04/14 00:18:19;;;;;;;7.93;2.20;;;0.00;99.90;;;;;;4892660;28;20028;-71
2021/04/14 00:20:46;;;;;;;6.00;2.10;;;0.10;99.90;;;;;;4957471;28;20108;-71
2021/04/14 00:23:12;;;;;;;8.60;2.40;;;0.20;99.90;;;;;;4892532;28;20032;-71
2021/04/14 00:25:43;;;;;;;6.53;2.05;;;0.20;99.90;;;;;;4892814;28;20159;-72
2021/04/14 00:28:09;;;;;;;5.00;1.73;;;0.30;99.90;;;;;;4957283;28;20491;-71
2021/04/14 00:30:35;;;;;;;9.55;2.22;;;0.40;99.90;;;;;;4893244;29;20029;-71
2021/04/14 00:33:01;;;;;;;8.85;2.30;;;0.50;99.90;;;;;;4892622;28;20039;-71
2021/04/14 00:35:27;;;;;;;14.32;3.00;;;0.40;99.90;;;;;;4957453;28;20398;-71
2021/04/14 00:37:54;;;;;;;10.23;2.53;;;0.30;99.90;;;;;;4892866;28;20107;-71
2021/04/14 00:40:32;;;;;;;8.05;2.80;;;0.00;99.90;;;;;;4892813;28;20123;-71
2021/04/14 00:42:59;;;;;;;8.93;3.20;;;-0.10;99.90;;;;;;4892376;28;20147;-71
2021/04/14 00:45:26;;;;;;;9.65;3.33;;;-0.20;99.90;;;;;;4892667;28;20048;-71
2021/04/14 00:47:52;;;;;;;8.35;3.40;;;-0.20;99.90;;;;;;4892843;28;20028;-71
2021/04/14 00:50:21;;;;;;;12.52;3.97;;;-0.30;99.90;;;;;;4892696;28;20502;-71
2021/04/14 00:52:47;;;;;;;7.32;3.00;;;-0.30;99.90;;;;;;4892516;28;20087;-72
2021/04/14 00:55:16;;;;;;;9.60;2.95;;;-0.30;99.90;;;;;;4893106;28;20033;-71
2021/04/14 00:57:41;;;;;;;6.80;2.58;;;-0.20;99.90;;;;;;4960932;28;20064;-71
2021/04/14 01:00:35;;;;;;;7.55;2.58;;;-0.20;99.90;;;;;;4895594;28;20041;-72
2021/04/14 01:03:02;;;;;;;26.67;6.70;;;-0.20;99.90;;;;;;4900983;28;20124;-72
2021/04/14 01:05:32;;;;;;;7.63;2.85;;;-0.10;99.90;;;;;;4960691;28;20383;-72
2021/04/14 01:07:57;;;;;;;6.03;2.53;;;-0.20;99.90;;;;;;4895374;28;20024;-71
2021/04/14 01:10:26;;;;;;;8.45;2.83;;;-0.20;99.90;;;;;;4895416;28;20450;-71
2021/04/14 01:12:53;;;;;;;8.00;2.55;;;-0.10;99.90;;;;;;4895216;28;20033;-71
2021/04/14 01:15:28;;;;;;;8.38;2.72;;;-0.10;99.90;;;;;;4895655;28;20028;-72
2021/04/14 01:17:54;;;;;;;11.38;3.40;;;-0.30;99.90;;;;;;4895599;29;20032;-72
2021/04/14 01:20:20;;;;;;;6.40;2.42;;;-0.30;99.90;;;;;;4895364;28;20403;-71
2021/04/14 01:22:46;;;;;;;5.45;2.38;;;-0.40;99.90;;;;;;4894899;28;20419;-71
2021/04/14 01:25:15;;;;;;;6.93;2.92;;;-0.40;99.90;;;;;;4895189;28;20037;-71
2021/04/14 01:27:41;;;;;;;7.80;2.78;;;-0.40;99.90;;;;;;4895349;28;20483;-71
2021/04/14 01:30:28;;;;;;;6.57;2.90;;;-0.50;99.90;;;;;;4895127;28;20087;-72
2021/04/14 01:32:55;;;;;;;8.43;2.67;;;-0.50;99.90;;;;;;4895361;28;20048;-71
2021/04/14 01:35:23;;;;;;;7.18;2.60;;;-0.60;99.90;;;;;;4895366;29;20029;-71
2021/04/14 01:37:49;;;;;;;10.07;3.05;;;-0.70;99.90;;;;;;4894983;28;20411;-72
2021/04/14 01:40:17;;;;;;;6.72;2.90;;;-0.60;99.90;;;;;;4894907;28;20033;-71
2021/04/14 01:42:42;;;;;;;7.93;2.83;;;-0.50;99.90;;;;;;4959594;28;20399;-71
2021/04/14 01:45:10;;;;;;;11.65;3.33;;;-0.40;99.90;;;;;;4894998;28;20032;-70
2021/04/14 01:47:35;;;;;;;11.63;3.38;;;-0.40;99.90;;;;;;4959590;28;20024;-72
2021/04/14 01:50:01;;;;;;;6.93;2.58;;;-0.40;99.90;;;;;;4894730;28;20032;-72
2021/04/14 01:52:27;;;;;;;6.00;2.80;;;-0.50;99.90;;;;;;4894559;28;20087;-71
2021/04/14 01:54:53;;;;;;;9.93;2.90;;;-0.60;99.90;;;;;;4894997;28;20534;-71
2021/04/14 01:57:18;;;;;;;7.30;2.95;;;-0.60;99.90;;;;;;4895005;28;20024;-72
2021/04/14 01:59:44;;;;;;;8.50;3.25;;;-0.70;99.90;;;;;;4959103;28;20044;-71
2021/04/14 02:02:09;;;;;;;10.23;3.45;;;-0.80;99.90;;;;;;4894464;28;20058;-70
2021/04/14 02:04:35;;;;;;;16.65;4.72;;;-0.70;99.90;;;;;;4894506;28;20058;-71
2021/04/14 02:07:01;;;;;;;12.05;5.03;;;-0.70;99.90;;;;;;4894051;28;20040;-72
2021/04/14 02:09:26;;;;;;;12.13;4.43;;;-0.60;99.90;;;;;;4894506;28;20032;-71
2021/04/14 02:11:52;;;;;;;15.52;5.13;;;-0.50;99.90;;;;;;4894292;28;20041;-71
2021/04/14 02:14:17;;;;;;;13.95;4.78;;;-0.40;99.90;;;;;;4894564;28;20031;-71
2021/04/14 02:16:43;;;;;;;9.55;3.28;;;-0.40;99.90;;;;;;4894557;28;20502;-71
2021/04/14 02:19:09;;;;;;;10.85;3.78;;;-0.40;99.90;;;;;;4894315;28;20550;-71
2021/04/14 02:21:35;;;;;;;9.65;3.83;;;-0.40;99.90;;;;;;4894172;28;20029;-71
2021/04/14 02:24:00;;;;;;;11.25;3.75;;;-0.40;99.90;;;;;;4894322;28;20039;-71
2021/04/14 02:26:28;;;;;;;7.82;3.17;;;-0.40;99.90;;;;;;4958942;28;20052;-71
2021/04/14 02:28:53;;;;;;;8.77;4.00;;;-0.30;99.90;;;;;;4894730;28;20028;-72
2021/04/14 02:31:31;;;;;;;8.50;3.97;;;-0.30;99.90;;;;;;4894078;28;20368;-71
2021/04/14 02:34:02;;;;;;;8.05;3.28;;;-0.10;99.90;;;;;;4894336;28;20354;-71
2021/04/14 02:36:28;;;;;;;;;;;0.00;99.90;;;;;;4894634;28;20373;-72
2021/04/14 02:38:53;;;;;;;11.00;3.58;;;0.10;99.90;;;;;;4894039;29;19914;-72
2021/04/14 02:41:19;;;;;;;9.43;3.45;;;0.00;99.90;;;;;;4893896;28;20091;-71
2021/04/14 02:43:44;;;;;;;8.43;3.67;;;-0.10;99.90;;;;;;4894019;28;20115;-71
2021/04/14 02:46:10;;;;;;;9.02;3.90;;;-0.10;99.90;;;;;;4893252;28;20028;-71
2021/04/14 02:48:36;;;;;;;21.27;6.13;;;-0.20;99.90;;;;;;4894036;28;20418;-71
2021/04/14 02:51:03;;;;;;;13.07;5.00;;;-0.20;99.90;;;;;;4894115;28;20029;-72
2021/04/14 02:53:28;;;;;;;11.43;4.53;;;-0.20;99.90;;;;;;4893959;28;20546;-71
2021/04/14 02:55:54;;;;;;;12.95;4.97;;;-0.20;99.90;;;;;;4894129;28;20056;-72
2021/04/14 02:58:19;;;;;;;15.60;6.15;;;-0.10;99.90;;;;;;4893946;28;20037;-71
2021/04/14 03:00:45;;;;;;;12.07;5.05;;;-0.30;99.90;;;;;;4894123;28;20033;-71
2021/04/14 03:03:11;;;;;;;8.48;3.78;;;-0.40;99.90;;;;;;4893661;28;20052;-71
2021/04/14 03:05:36;;;;;;;17.55;4.50;;;-0.50;99.90;;;;;;4894176;29;20052;-72
2021/04/14 03:08:02;;;;;;;8.25;3.83;;;-0.50;99.90;;;;;;4958248;28;20036;-71
2021/04/14 03:10:29;;;;;;;13.30;4.32;;;-0.40;99.90;;;;;;4893843;29;20021;-71
2021/04/14 03:12:55;;;;;;;9.77;3.63;;;-0.20;99.90;;;;;;4893777;28;20025;-72
2021/04/14 03:15:24;;;;;;;12.85;4.25;;;-0.10;99.90;;;;;;4958308;28;20031;-71
2021/04/14 03:17:50;;;;;;;9.88;4.53;;;-0.10;99.90;;;;;;4893635;28;20035;-71
2021/04/14 03:20:16;;;;;;;9.50;4.70;;;-0.20;99.90;;;;;;4957145;28;20036;-71
2021/04/14 03:22:42;;;;;;;11.82;4.35;;;-0.10;99.90;;;;;;4893362;29;20075;-71
2021/04/14 03:25:09;;;;;;;7.97;4.22;;;-0.10;99.90;;;;;;4893094;28;20032;-71
2021/04/14 03:27:35;;;;;;;10.95;4.50;;;-0.20;99.90;;;;;;4958013;28;20029;-71
2021/04/14 03:30:01;;;;;;;13.98;4.47;;;-0.30;99.90;;;;;;4893474;28;20025;-72
2021/04/14 03:32:26;;;;;;;11.77;5.10;;;-0.40;99.90;;;;;;4893317;28;20415;-71
2021/04/14 03:34:52;;;;;;;14.23;4.90;;;-0.50;99.90;;;;;;4893405;28;20033;-71
2021/04/14 03:37:17;;;;;;;10.25;4.70;;;-0.50;99.90;;;;;;4893544;28;20032;-72
2021/04/14 03:39:43;;;;;;;10.98;4.22;;;-0.50;99.90;;;;;;4893509;28;20067;-72
2021/04/14 03:42:08;;;;;;;13.40;4.43;;;-0.50;99.90;;;;;;4893122;28;20052;-72
2021/04/14 03:44:36;;;;;;;11.60;4.43;;;-0.40;99.90;;;;;;4893253;28;20480;-72
2021/04/14 03:47:03;;;;;;;9.50;4.40;;;-0.40;99.90;;;;;;4893249;29;20028;-71
2021/04/14 03:49:30;;;;;;;11.00;5.15;;;-0.30;99.90;;;;;;4893209;28;20025;-72
2021/04/14 03:51:56;;;;;;;9.00;4.68;;;-0.20;99.90;;;;;;4893075;28;20021;-71
2021/04/14 03:54:22;;;;;;;11.43;5.10;;;-0.20;99.90;;;;;;4893234;28;20043;-71
2021/04/14 03:56:48;;;;;;;15.73;6.35;;;0.00;99.90;;;;;;4893374;29;20064;-71
2021/04/14 03:59:14;;;;;;;13.20;5.13;;;0.30;99.90;;;;;;4893025;28;20495;-72
2021/04/14 04:01:39;;;;;;;11.48;4.97;;;0.20;99.90;;;;;;4892926;29;20064;-71
2021/04/14 04:04:05;;;;;;;12.40;4.90;;;0.30;99.90;;;;;;4957611;28;20083;-71
2021/04/14 04:06:30;;;;;;;11.60;5.35;;;0.20;99.90;;;;;;4893060;28;20035;-70
2021/04/14 04:08:56;;;;;;;10.85;5.93;;;0.30;99.90;;;;;;4892935;28;20032;-70
2021/04/14 04:11:23;;;;;;;11.48;4.75;;;0.30;99.90;;;;;;4892819;28;20043;-71
2021/04/14 04:13:50;;;;;;;12.07;4.72;;;0.30;99.90;;;;;;4892961;28;20024;-70
2021/04/14 04:16:15;;;;;;;10.93;4.60;;;0.30;99.90;;;;;;4957681;28;20036;-70
2021/04/14 04:18:41;;;;;;;8.93;4.38;;;0.40;99.90;;;;;;4892896;28;20033;-69
2021/04/14 04:21:08;;;;;;;8.00;4.40;;;0.50;99.90;;;;;;4893033;28;20024;-70
2021/04/14 04:23:34;;;;;;;10.55;5.22;;;0.50;99.90;;;;;;4892565;28;20032;-69
2021/04/14 04:26:00;;;;;;;11.82;5.63;;;0.40;99.90;;;;;;4880564;28;20025;-69
2021/04/14 04:28:26;;;;;;;10.15;4.90;;;0.40;99.90;;;;;;4892185;29;20025;-69
2021/04/14 04:30:51;;;;;;;10.98;4.63;;;0.40;99.90;;;;;;4895665;28;20387;-70
2021/04/14 04:33:18;;;;;;;10.13;5.00;;;0.30;99.90;;;;;;4896122;28;20024;-69
2021/04/14 04:35:44;;;;;;;9.07;4.82;;;0.40;99.90;;;;;;4891558;28;20024;-69
2021/04/14 04:38:09;;;;;;;9.45;4.90;;;0.70;99.90;;;;;;4896271;28;20514;-70
2021/04/14 04:40:35;;;;;;;9.77;4.57;;;0.70;99.90;;;;;;4896653;29;20025;-70
2021/04/14 04:43:01;;;;;;;10.25;5.07;;;0.70;99.90;;;;;;4895907;29;20032;-70
2021/04/14 04:45:29;;;;;;;11.38;6.13;;;0.70;99.90;;;;;;4896209;29;20053;-70
2021/04/14 04:47:55;;;;;;;12.43;4.35;;;0.70;99.90;;;;;;4908823;28;20028;-70
2021/04/14 04:50:26;;;;;;;15.80;4.97;;;0.80;99.90;;;;;;4895123;28;20025;-70
2021/04/14 04:52:56;;;;;;;12.70;4.57;;;0.80;99.90;;;;;;4895323;28;20032;-70
2021/04/14 04:55:22;;;;;;;11.35;4.40;;;0.80;99.90;;;;;;4960925;28;20545;-69
2021/04/14 04:57:48;;;;;;;12.85;4.80;;;0.90;99.90;;;;;;4895891;28;20148;-69
2021/04/14 05:00:15;;;;;;;10.63;4.85;;;0.90;99.90;;;;;;4895607;28;20048;-70
2021/04/14 05:02:40;;;;;;;14.02;5.72;;;0.90;99.90;;;;;;4895418;28;20025;-69
2021/04/14 05:05:13;;;;;;;16.23;8.50;;;0.80;99.90;;;;;;4895662;28;20033;-69
2021/04/14 05:07:39;;;;;;;30.95;16.38;;;0.80;99.90;;;;;;4895462;28;20498;-68
2021/04/14 05:10:06;;;;;;;16.00;9.77;;;0.70;99.90;;;;;;4895520;29;20029;-69
2021/04/14 05:12:31;;;;;;;18.13;9.52;;;0.70;99.90;;;;;;4895237;28;20028;-69
2021/04/14 05:14:57;;;;;;;14.45;6.78;;;0.70;99.90;;;;;;4895500;28;20571;-69
2021/04/14 05:17:22;;;;;;;14.98;7.85;;;0.70;99.90;;;;;;4895406;28;20475;-69
2021/04/14 05:19:48;;;;;;;20.10;8.10;;;0.70;99.90;;;;;;4895859;28;20091;-69
2021/04/14 05:22:14;;;;;;;20.55;8.57;;;0.70;99.90;;;;;;4895137;28;20505;-69
2021/04/14 05:24:39;;;;;;;13.95;7.28;;;0.70;99.90;;;;;;4895170;28;20068;-68
2021/04/14 05:27:05;;;;;;;14.93;7.78;;;0.70;99.90;;;;;;4959979;28;20032;-68
2021/04/14 05:29:31;;;;;;;16.52;6.63;;;0.70;99.90;;;;;;4895450;28;20521;-69
2021/04/14 05:31:57;;;;;;;17.48;7.18;;;0.70;99.90;;;;;;4894772;28;20460;-69
2021/04/14 05:34:23;;;;;;;16.27;7.55;;;0.70;99.90;;;;;;4894953;28;20075;-69
2021/04/14 05:36:50;;;;;;;13.98;6.55;;;0.80;99.90;;;;;;4894901;28;20056;-69
2021/04/14 05:39:15;;;;;;;13.73;6.05;;;0.80;99.90;;;;;;4895040;28;20119;-71
2021/04/14 05:41:41;;;;;;;18.30;7.03;;;0.80;99.90;;;;;;4959253;28;20547;-69
2021/04/14 05:44:06;;;;;;;19.48;6.95;;;0.80;99.90;;;;;;4894614;28;20051;-70
2021/04/14 05:46:32;;;;;;;16.70;6.95;;;0.80;99.90;;;;;;4959641;28;20029;-69
2021/04/14 05:48:57;;;;;;;12.55;6.57;;;0.90;99.90;;;;;;4894864;28;20094;-68
2021/04/14 05:51:30;;;;;;;17.90;6.85;;;1.00;99.90;;;;;;4875977;28;20484;-69
2021/04/14 05:53:57;;;;;;;22.25;7.30;;;0.90;99.90;;;;;;4957086;28;20083;-69
2021/04/14 05:56:23;;;;;;;14.90;6.90;;;0.90;99.90;;;;;;4876417;29;20040;-69
2021/04/14 05:58:49;;;;;;;16.42;6.40;;;1.10;99.90;;;;;;4876104;29;20037;-69
2021/04/14 06:01:18;;;;;;;14.75;7.03;;;1.30;99.90;;;;;;4875990;29;20040;-69
2021/04/14 06:03:44;;;;;;;15.52;7.68;;;1.40;99.90;;;;;;4894518;29;20480;-69
2021/04/14 06:06:10;;;;;;;19.65;8.00;;;1.70;99.90;;;;;;4895006;29;20043;-69
2021/04/14 06:08:35;;;;;;;14.07;8.68;;;2.00;99.90;;;;;;4894848;28;20029;-69
2021/04/14 06:11:01;;;;;;;18.52;8.88;;;2.30;99.90;;;;;;4894945;28;20107;-69
2021/04/14 06:13:28;;;;;;;20.35;9.73;;;2.40;99.90;;;;;;4959199;28;20483;-68
2021/04/14 06:15:53;;;;;;;21.25;9.63;;;2.50;99.90;;;;;;4894560;28;20025;-69
2021/04/14 06:18:19;;;;;;;19.05;9.15;;;2.60;99.90;;;;;;4894241;28;20490;-69
2021/04/14 06:20:44;;;;;;;19.13;9.35;;;2.80;99.90;;;;;;4894162;28;20028;-69
2021/04/14 06:23:16;;;;;;;16.25;8.57;;;3.10;99.90;;;;;;4894205;28;20028;-69
2021/04/14 06:25:54;;;;;;;15.10;7.47;;;3.10;99.90;;;;;;4959353;28;20025;-68
2021/04/14 06:28:21;;;;;;;15.35;8.88;;;3.10;99.90;;;;;;4894078;28;20032;-68
2021/04/14 06:30:46;;;;;;;21.27;9.80;;;3.20;99.90;;;;;;4898370;28;20028;-68
2021/04/14 06:33:15;;;;;;;20.55;9.75;;;3.30;99.90;;;;;;4899340;29;20039;-68
2021/04/14 06:35:40;;;;;;;18.38;9.32;;;3.30;99.90;;;;;;4969870;28;20025;-68
2021/04/14 06:38:06;;;;;;;17.88;8.18;;;3.50;99.90;;;;;;4971200;28;20553;-68
2021/04/14 06:43:37;;;;;;;13.50;7.65;;;3.80;99.90;;;;;;4896444;28;20123;-68
2021/04/14 06:46:17;;;;;;;17.27;8.30;;;4.00;99.90;;;;;;4874428;29;20035;-68
2021/04/14 06:49:15;;;;;;;21.40;10.52;;;4.10;99.90;;;;;;4895920;29;20115;-70
2021/04/14 06:51:58;;;;;;;18.00;8.23;;;4.30;99.90;;;;;;4825724;29;20504;-69
2021/04/14 06:54:43;;;;;;;15.57;7.78;;;4.50;99.90;;;;;;4835820;29;20045;-70
2021/04/14 06:57:17;;;;;;;15.38;6.65;;;4.60;99.90;;;;;;4836063;29;20033;-70
2021/04/14 06:59:48;;;;;;;20.25;7.65;;;4.70;99.90;;;;;;4835610;29;20045;-70
2021/04/14 07:02:22;;;;;;;15.30;6.95;;;4.60;99.90;;;;;;4835636;29;20038;-71
2021/04/14 07:05:10;;;;;;;13.82;6.57;;;4.50;99.90;;;;;;4835848;29;20097;-71
2021/04/14 07:07:39;;;;;;;15.27;6.38;;;4.50;99.90;;;;;;4835324;29;20042;-70
2021/04/14 07:10:15;;;;;;;14.35;5.68;;;4.50;99.90;;;;;;4834790;29;20033;-70
2021/04/14 07:12:40;;;;;;;13.32;6.13;;;4.60;99.90;;;;;;4834516;29;20026;-70
2021/04/14 07:15:06;;;;;;;12.20;5.28;;;4.70;99.90;;;;;;4834853;29;20054;-71
2021/04/14 07:18:17;;;;;;;13.55;7.20;;;4.80;99.90;;;;;;4834676;29;20053;-71
2021/04/14 07:20:57;;;;;;;14.30;6.07;;;4.80;99.90;;;;;;4824536;29;20041;-71
2021/04/14 07:23:46;;;;;;;11.35;4.47;;;5.00;98.70;;;;;;4834778;29;20089;-70
2021/04/14 07:26:31;;;;;;;8.43;4.40;;;5.00;98.50;;;;;;4839557;29;20030;-70
2021/04/14 07:29:24;;;;;;;11.20;4.70;;;4.90;98.60;;;;;;4912199;28;20039;-70
2021/04/14 07:32:23;;;;;;;13.80;4.28;;;5.00;99.00;;;;;;4912244;29;20024;-70
2021/04/14 07:35:00;;;;;;;11.55;4.05;;;5.10;98.20;;;;;;4977221;28;20035;-70
2021/04/14 07:37:32;;;;;;;9.90;3.70;;;5.00;97.90;;;;;;4912063;29;20557;-70
2021/04/14 07:40:10;;;;;;;18.65;5.32;;;4.80;98.30;;;;;;4912382;28;20445;-70
2021/04/14 07:43:02;;;;;;;17.65;4.95;;;4.90;98.60;;;;;;4912180;28;20430;-70
2021/04/14 07:45:37;;;;;;;9.20;3.55;;;5.00;98.60;;;;;;4964150;28;20046;-70
2021/04/14 07:48:08;;;;;;;10.80;4.28;;;5.10;97.90;;;;;;4911992;28;20491;-70
2021/04/14 07:50:52;;;;;;;12.90;4.07;;;5.20;98.20;;;;;;4911943;29;20438;-70
2021/04/14 07:53:22;;;;;;;17.23;3.83;;;5.40;98.20;;;;;;4976759;28;20434;-70
2021/04/14 07:56:18;;;;;;;11.77;3.83;;;5.50;97.70;;;;;;4911953;29;20110;-70
2021/04/14 07:58:44;;;;;;;10.15;3.08;;;5.60;97.20;;;;;;4911922;28;20052;-70
2021/04/14 08:01:31;;;;;;;10.15;4.35;;;5.60;97.40;;;;;;4912009;28;20035;-70
2021/04/14 08:04:31;;;;;;;15.07;4.80;;;5.60;97.20;;;;;;4976773;28;20035;-70
2021/04/14 08:07:09;;;;;;;11.82;4.63;;;5.70;98.50;;;;;;4915298;29;20036;-70
2021/04/14 08:09:45;;;;;;;8.38;3.90;;;5.90;99.20;;;;;;4915896;29;20482;-71
2021/04/14 08:12:11;;;;;;;7.95;3.30;;;6.10;97.00;;;;;;4915674;29;20028;-71
2021/04/14 08:14:39;;;;;;;11.73;4.20;;;6.20;96.40;;;;;;4915781;29;20084;-71
2021/04/14 08:17:31;;;;;;;8.93;3.22;;;6.20;97.00;;;;;;4915878;29;20044;-70
2021/04/14 08:20:03;;;;;;;12.52;3.70;;;6.20;96.70;;;;;;4912200;29;20051;-71
2021/04/14 08:22:29;;;;;;;10.70;4.07;;;6.40;96.70;;;;;;4915482;29;20491;-71
2021/04/14 08:25:01;;;;;;;11.93;3.78;;;6.60;96.30;;;;;;4915662;29;20043;-70
2021/04/14 08:27:33;;;;;;;13.00;4.00;;;6.60;95.80;;;;;;4915623;29;20050;-70
2021/04/14 08:30:02;;;;;;;6.85;3.60;;;6.60;97.20;;;;;;4899854;29;20423;-70
2021/04/14 08:32:33;;;;;;;9.57;3.92;;;6.80;95.80;;;;;;4915433;29;20035;-71
2021/04/14 08:35:02;;;;;;;10.45;3.90;;;6.80;95.70;;;;;;4915493;29;20076;-71
2021/04/14 08:37:29;;;;;;;10.70;3.33;;;6.70;95.00;;;;;;4899525;29;20028;-71
2021/04/14 08:39:59;;;;;;;13.77;4.18;;;6.70;96.10;;;;;;4915378;29;20035;-71
2021/04/14 08:42:32;;;;;;;10.48;3.95;;;6.90;95.40;;;;;;4937878;28;20560;-71
2021/04/14 08:45:30;;;;;;;10.07;3.78;;;6.80;94.50;;;;;;4980170;28;20044;-71
2021/04/14 08:48:21;;;;;;;10.95;4.47;;;6.90;94.80;;;;;;4914522;28;20159;-71
2021/04/14 08:50:54;;;;;;;9.75;3.55;;;7.10;94.50;;;;;;4980206;28;20028;-70
2021/04/14 08:53:28;;;;;;;15.52;4.57;;;7.00;94.80;;;;;;4914275;29;20398;-71
2021/04/14 08:55:54;;;;;;;12.32;3.45;;;6.80;95.40;;;;;;4979955;28;20091;-71
2021/04/14 08:58:20;;;;;;;14.57;3.63;;;6.80;94.00;;;;;;4914434;29;20599;-71
2021/04/14 09:00:47;;;;;;;18.45;5.05;;;6.50;94.60;;;;;;4914544;29;20406;-71
2021/04/14 09:03:18;;;;;;;12.15;4.60;;;6.50;95.10;;;;;;4979596;28;20044;-71
2021/04/14 09:05:45;;;;;;;13.35;4.30;;;6.50;95.60;;;;;;4914520;28;20032;-71
2021/04/14 09:08:14;;;;;;;17.40;4.25;;;6.40;95.80;;;;;;4914414;28;20020;-71
2021/04/14 09:10:49;;;;;;;10.40;3.30;;;6.40;96.00;;;;;;4914469;28;20025;-71
2021/04/14 09:13:15;;;;;;;14.73;6.38;;;6.40;95.20;;;;;;4914135;28;20028;-71
2021/04/14 09:15:53;;;;;;;14.25;3.85;;;6.50;95.40;;;;;;4914218;29;20039;-71
2021/04/14 09:18:28;;;;;;;11.40;3.40;;;6.50;95.10;;;;;;4913028;29;20392;-70
2021/04/14 09:21:15;;;;;;;10.55;2.60;;;6.60;95.00;;;;;;4914190;28;20118;-70
2021/04/14 09:23:58;;;;;;;10.52;3.22;;;6.60;94.60;;;;;;4914121;29;20055;-71
2021/04/14 09:26:38;;;;;;;11.43;3.60;;;6.70;94.40;;;;;;4914181;28;20032;-71
2021/04/14 09:29:20;;;;;;;11.73;3.33;;;6.80;94.90;;;;;;4979374;28;20029;-70
2021/04/14 09:31:51;;;;;;;7.93;2.80;;;6.80;93.70;;;;;;4913884;28;20039;-70
2021/04/14 09:34:37;;;;;;;9.85;3.00;;;6.80;93.90;;;;;;4979581;28;20395;-71
2021/04/14 09:37:07;;;;;;;8.90;2.95;;;6.90;94.30;;;;;;4979180;28;20032;-70
2021/04/14 09:39:45;;;;;;;11.52;3.15;;;7.00;94.40;;;;;;4979199;28;20039;-71
2021/04/14 09:42:27;;;;;;;10.40;3.08;;;7.00;93.80;;;;;;4913646;28;20028;-71
2021/04/14 09:44:55;;;;;;;9.13;2.90;;;7.00;93.40;;;;;;4913966;28;20246;-71
2021/04/14 09:47:30;;;;;;;10.63;3.35;;;7.20;93.40;;;;;;4979188;28;20024;-71
2021/04/14 09:50:01;;;;;;;14.38;3.38;;;7.20;94.20;;;;;;4913582;29;20055;-71
2021/04/14 09:52:44;;;;;;;9.73;2.38;;;7.50;92.20;;;;;;4913394;28;20082;-71
2021/04/14 09:55:18;;;;;;;10.68;2.40;;;7.70;90.20;;;;;;4978913;28;20036;-71
2021/04/14 09:57:50;;;;;;;11.60;2.15;;;7.90;90.60;;;;;;4913591;29;20391;-71
2021/04/14 10:00:19;;;;;;;6.35;2.00;;;8.20;87.00;;;;;;4913644;28;20036;-71
2021/04/14 10:02:48;;;;;;;9.70;3.17;;;8.50;86.50;;;;;;4978288;28;20127;-71
2021/04/14 10:05:16;;;;;;;7.93;2.35;;;8.40;84.40;;;;;;4913661;28;20025;-71
2021/04/14 10:07:44;;;;;;;13.77;3.00;;;8.40;85.00;;;;;;4913459;28;20028;-71
2021/04/14 10:10:21;;;;;;;10.25;2.75;;;8.40;83.70;;;;;;4913309;28;20024;-71
2021/04/14 10:12:47;;;;;;;11.52;3.03;;;8.10;85.50;;;;;;4913101;28;20486;-71
2021/04/14 10:15:13;;;;;;;13.07;2.50;;;7.90;88.80;;;;;;4913370;29;20029;-71
2021/04/14 10:17:39;;;;;;;8.23;2.40;;;7.90;84.80;;;;;;4913195;28;20062;-71
2021/04/14 10:20:14;;;;;;;7.13;2.33;;;7.90;85.00;;;;;;4978502;28;20068;-71
2021/04/14 10:22:48;;;;;;;7.25;2.38;;;8.00;86.60;;;;;;4913054;28;20071;-71
2021/04/14 10:25:19;;;;;;;10.90;2.67;;;7.80;83.40;;;;;;4913171;29;20020;-71
2021/04/14 10:27:46;;;;;;;8.45;2.17;;;7.50;87.50;;;;;;4912943;28;20078;-71
2021/04/14 10:30:18;;;;;;;7.85;2.38;;;7.40;83.60;;;;;;4912881;28;20031;-72
2021/04/14 10:32:44;;;;;;;10.70;2.72;;;7.40;84.10;;;;;;4912861;28;20090;-70
2021/04/14 10:35:19;;;;;;;13.65;2.30;;;7.60;87.10;;;;;;4913146;28;20471;-71
2021/04/14 10:37:50;;;;;;;8.38;2.15;;;7.90;90.20;;;;;;4913007;28;20048;-71
2021/04/14 10:40:21;;;;;;;10.00;2.20;;;8.50;92.70;;;;;;4978192;28;20028;-71
2021/04/14 10:42:48;;;;;;;;;;;8.90;80.70;;;;;;4913041;28;20035;-70
2021/04/14 10:45:17;;;;;;;8.35;2.40;;;9.30;77.90;;;;;;4912436;29;20029;-70
2021/04/14 10:47:44;;;;;;;10.45;2.08;;;9.30;79.30;;;;;;4913035;28;20119;-70
2021/04/14 10:50:21;;;;;;;5.47;1.98;;;9.50;84.20;;;;;;4912981;28;20032;-70
2021/04/14 10:52:52;;;;;;;6.97;1.90;;;9.60;76.90;;;;;;4912486;28;20159;-71
2021/04/14 10:55:24;;;;;;;11.63;3.10;;;9.60;80.20;;;;;;4913331;28;20024;-71
2021/04/14 10:57:57;;;;;;;7.07;2.00;;;9.80;74.60;;;;;;4912755;29;20028;-71
2021/04/14 11:00:30;;;;;;;20.70;3.17;;;10.10;69.30;;;;;;4912828;29;20044;-70
2021/04/14 11:03:01;;;;;;;8.32;2.35;;;10.20;71.40;;;;;;4912573;28;20106;-71
2021/04/14 11:05:28;;;;;;;10.80;2.40;;;9.90;65.20;;;;;;4912768;28;20056;-71
2021/04/14 11:07:54;;;;;;;8.45;2.33;;;9.70;60.40;;;;;;4977790;28;20051;-73
2021/04/14 11:10:28;;;;;;;8.55;2.70;;;9.30;65.20;;;;;;4977694;28;20525;-72
2021/04/14 11:12:55;;;;;;;7.47;2.65;;;9.20;70.00;;;;;;4912567;28;20062;-71
2021/04/14 11:15:24;;;;;;;10.57;4.05;;;9.00;70.70;;;;;;4977889;28;20028;-71
2021/04/14 11:18:01;;;;;;;15.25;4.32;;;8.40;76.00;;;;;;4912633;28;20028;-71
2021/04/14 11:20:48;;;;;;;13.68;4.63;;;8.30;80.10;;;;;;4978256;28;20028;-72
2021/04/14 11:23:26;;;;;;;7.47;2.60;;;8.20;80.00;;;;;;4977233;28;20434;-72
2021/04/14 11:26:11;;;;;;;8.15;2.97;;;8.30;85.10;;;;;;4977431;28;20024;-72
2021/04/14 11:28:46;;;;;;;8.98;2.95;;;8.40;79.70;;;;;;4977449;28;20135;-73
2021/04/14 11:31:27;;;;;;;12.75;3.55;;;8.30;78.80;;;;;;4977312;28;20499;-72
2021/04/14 11:33:52;;;;;;;8.63;2.65;;;8.30;76.10;;;;;;4912391;28;20028;-72
2021/04/14 11:36:30;;;;;;;10.52;2.40;;;8.30;78.50;;;;;;4977293;28;20043;-73
2021/04/14 11:39:23;;;;;;;8.38;2.78;;;8.40;78.80;;;;;;4976951;28;20115;-72
2021/04/14 11:42:01;;;;;;;8.35;3.00;;;8.40;79.40;;;;;;4972159;28;20040;-70
2021/04/14 11:44:38;;;;;;;13.80;3.03;;;8.40;88.20;;;;;;4977065;28;20043;-70
2021/04/14 11:47:06;;;;;;;14.02;2.90;;;8.20;90.30;;;;;;4976996;28;20028;-70
2021/04/14 11:49:37;;;;;;;7.55;2.53;;;8.10;90.10;;;;;;4977040;28;20032;-71
2021/04/14 11:52:42;;;;;;;10.00;2.70;;;8.20;91.50;;;;;;4911910;28;20498;-71
2021/04/14 11:55:20;;;;;;;9.88;2.70;;;8.20;89.40;;;;;;4912180;28;20115;-72
2021/04/14 11:57:50;;;;;;;8.02;2.72;;;8.10;89.20;;;;;;4906293;29;20024;-71
2021/04/14 12:00:26;;;;;;;5.88;2.50;;;7.80;90.20;;;;;;4964241;28;20039;-71
2021/04/14 12:02:56;;;;;;;9.38;3.00;;;7.90;90.30;;;;;;4963086;28;20047;-72
2021/04/14 12:05:22;;;;;;;17.38;2.72;;;8.30;89.20;;;;;;4966589;28;20498;-72
2021/04/14 12:07:47;;;;;;;10.82;2.22;;;8.80;81.10;;;;;;4903018;28;20233;-72
2021/04/14 12:10:14;;;;;;;8.45;2.80;;;9.20;78.30;;;;;;4902896;28;20109;-72
2021/04/14 12:12:39;;;;;;;13.70;3.08;;;9.70;77.90;;;;;;4892714;29;20020;-71
2021/04/14 12:15:06;;;;;;;8.93;2.17;;;9.60;80.50;;;;;;4892935;28;20079;-72
2021/04/14 12:17:32;;;;;;;9.10;2.10;;;10.50;76.80;;;;;;4957499;28;20032;-72
2021/04/14 12:19:57;;;;;;;9.93;2.40;;;11.70;75.20;;;;;;4957521;28;20028;-72
2021/04/14 12:22:24;;;;;;;7.20;1.95;;;12.70;75.60;;;;;;4892660;28;20035;-72
2021/04/14 12:24:49;;;;;;;5.68;2.20;;;14.00;66.40;;;;;;4893155;28;20028;-72
2021/04/14 12:27:15;;;;;;;7.28;2.30;;;14.70;62.90;;;;;;4957233;28;20047;-72
2021/04/14 12:29:40;;;;;;;4.93;2.20;;;14.80;58.70;;;;;;4892751;28;20407;-73
2021/04/14 12:32:06;;;;;;;12.30;2.78;;;15.30;55.60;;;;;;4892629;28;20264;-73
2021/04/14 12:34:32;;;;;;;8.48;2.28;;;15.20;57.20;;;;;;4892787;28;20029;-72
2021/04/14 12:36:58;;;;;;;6.63;1.95;;;15.20;55.70;;;;;;4892620;28;20435;-72
2021/04/14 12:39:24;;;;;;;7.50;1.95;;;13.80;57.80;;;;;;4971764;28;20086;-72
2021/04/14 12:41:50;;;;;;;7.10;1.75;;;12.80;65.50;;;;;;4911257;28;20036;-72
2021/04/14 12:44:17;;;;;;;5.38;1.65;;;11.60;70.20;;;;;;4976258;28;20082;-72
2021/04/14 12:46:45;;;;;;;6.45;1.77;;;10.60;77.90;;;;;;4911500;28;20033;-72
2021/04/14 12:49:15;;;;;;;5.55;2.50;;;10.10;85.90;;;;;;4911429;28;20043;-72
2021/04/14 12:51:49;;;;;;;15.18;7.97;;;9.50;86.90;;;;;;4977302;28;20024;-72
2021/04/14 12:54:34;;;;;;;5.93;1.42;;;8.90;90.20;;;;;;4980185;28;20446;-72
2021/04/14 12:57:04;;;;;;;3.38;1.40;;;8.50;91.00;;;;;;4905951;29;20029;-72
2021/04/14 12:59:33;;;;;;;13.55;6.00;;;8.40;89.10;;;;;;4895634;28;20039;-72
2021/04/14 13:02:21;;;;;;;5.38;1.65;;;8.20;87.30;;;;;;4895383;28;20499;-72
2021/04/14 13:05:24;;;;;;;8.70;1.30;;;8.30;87.20;;;;;;4895577;28;20039;-72
2021/04/14 13:07:53;;;;;;;3.00;1.10;;;8.70;84.20;;;;;;4900417;28;20037;-72